createdAt,value
2023-04-17T00:00:17.742Z,14.7780
2023-04-17T00:01:20.335Z,14.4304
2023-04-17T00:02:23.028Z,15.0002
2023-04-17T00:03:25.557Z,14.2593
2023-04-17T00:04:28.156Z,14.7428
2023-04-17T00:05:30.696Z,14.7540
2023-04-17T00:06:33.210Z,14.4053
2023-04-17T00:07:35.824Z,14.2855
2023-04-17T00:08:38.655Z,14.3569
2023-04-17T00:09:40.995Z,14.9419
2023-04-17T00:10:44.442Z,13.6571
2023-04-17T00:11:46.157Z,14.2217
2023-04-17T00:12:48.707Z,14.7057
2023-04-17T00:13:51.322Z,14.3142
2023-04-17T00:14:54.078Z,14.2163
2023-04-17T00:15:56.595Z,14.0365
2023-04-17T00:16:59.044Z,14.5499
2023-04-17T00:18:01.777Z,13.9681
2023-04-17T00:19:04.204Z,13.7362
2023-04-17T00:20:07.122Z,14.3824
2023-04-17T00:21:09.375Z,14.6119
2023-04-17T00:22:11.980Z,14.1745
2023-04-17T00:23:14.542Z,13.8051
2023-04-17T00:24:17.148Z,14.1598
2023-04-17T00:25:19.712Z,14.3555
2023-04-17T00:26:22.304Z,13.5508
2023-04-17T00:27:24.859Z,13.7195
2023-04-17T00:28:27.474Z,13.2202
2023-04-17T00:29:30.029Z,13.1982
2023-04-17T00:30:32.642Z,14.0036
2023-04-17T00:31:35.226Z,13.6692
2023-04-17T00:32:37.890Z,14.1742
2023-04-17T00:33:40.566Z,13.8826
2023-04-17T00:34:42.974Z,12.9770
2023-04-17T00:35:45.532Z,13.3907
2023-04-17T00:36:48.136Z,13.4421
2023-04-17T00:37:50.720Z,13.5752
2023-04-17T00:38:53.311Z,13.7368
2023-04-17T00:39:55.865Z,13.5688
2023-04-17T00:40:58.469Z,12.6720
2023-04-17T00:42:01.319Z,13.4502
2023-04-17T00:43:03.613Z,13.0829
2023-04-17T00:44:06.365Z,13.1232
2023-04-17T00:45:08.780Z,13.0615
2023-04-17T00:46:11.439Z,13.3421
2023-04-17T00:47:13.956Z,12.1680
2023-04-17T00:48:16.576Z,12.4895
2023-04-17T00:49:19.127Z,13.5512
2023-04-17T00:50:21.747Z,13.0832
2023-04-17T00:51:24.301Z,12.9523
2023-04-17T00:52:27.109Z,12.3724
2023-04-17T00:53:29.463Z,12.6551
2023-04-17T00:54:32.090Z,12.1906
2023-04-17T00:55:34.645Z,12.0990
2023-04-17T00:56:37.246Z,11.5169
2023-04-17T00:57:39.812Z,12.5547
2023-04-17T00:58:42.406Z,12.2656
2023-04-17T00:59:44.960Z,13.1503
2023-04-17T01:00:47.606Z,12.2859
2023-04-17T01:01:50.208Z,12.3130
2023-04-17T01:02:52.829Z,13.0126
2023-04-17T01:03:55.764Z,12.8085
2023-04-17T01:04:57.987Z,12.3468
2023-04-17T01:06:00.538Z,12.5522
2023-04-17T01:07:03.173Z,12.6207
2023-04-17T01:08:05.703Z,12.1805
2023-04-17T01:09:08.306Z,12.3043
2023-04-17T01:10:10.862Z,12.5545
2023-04-17T01:11:13.469Z,12.3743
2023-04-17T01:12:16.023Z,12.0901
2023-04-17T01:13:18.664Z,12.2613
2023-04-17T01:14:21.209Z,12.2566
2023-04-17T01:15:23.821Z,11.5856
2023-04-17T01:16:26.380Z,12.0817
2023-04-17T01:17:28.987Z,12.4191
2023-04-17T01:18:31.527Z,11.6074
2023-04-17T01:19:34.350Z,12.4467
2023-04-17T01:20:37.006Z,12.0831
2023-04-17T01:21:39.308Z,11.5875
2023-04-17T01:22:41.854Z,12.1409
2023-04-17T01:23:44.470Z,11.8498
2023-04-17T01:24:47.039Z,11.0381
2023-04-17T01:25:49.637Z,11.1585
2023-04-17T01:26:52.202Z,11.8741
2023-04-17T01:27:54.795Z,11.5747
2023-04-17T01:28:57.409Z,11.3379
2023-04-17T01:29:59.967Z,12.0820
2023-04-17T01:31:02.566Z,11.7277
2023-04-17T01:32:05.134Z,11.4629
2023-04-17T01:33:07.707Z,11.7148
2023-04-17T01:34:10.306Z,12.1767
2023-04-17T01:35:12.874Z,11.3622
2023-04-17T01:36:15.485Z,11.5292
2023-04-17T01:37:18.041Z,11.5544
2023-04-17T01:38:20.664Z,11.2627
2023-04-17T01:39:23.508Z,11.0564
2023-04-17T01:40:25.835Z,11.7067
2023-04-17T01:41:28.401Z,11.0739
2023-04-17T01:42:30.990Z,10.8551
2023-04-17T01:43:33.569Z,11.1775
2023-04-17T01:44:36.164Z,10.9955
2023-04-17T01:45:38.760Z,10.7600
2023-04-17T01:46:41.409Z,10.4896
2023-04-17T01:47:43.926Z,11.2072
2023-04-17T01:48:46.628Z,11.1253
2023-04-17T01:49:49.069Z,11.0217
2023-04-17T01:50:51.681Z,10.8922
2023-04-17T01:51:54.243Z,11.5462
2023-04-17T01:52:56.847Z,10.5324
2023-04-17T01:53:59.407Z,10.8111
2023-04-17T01:55:02.020Z,10.9939
2023-04-17T01:56:04.586Z,10.7855
2023-04-17T01:57:07.202Z,10.5167
2023-04-17T01:58:09.759Z,10.2603
2023-04-17T01:59:12.504Z,10.7092
2023-04-17T02:00:14.928Z,10.7760
2023-04-17T02:01:17.559Z,10.4855
2023-04-17T02:02:20.332Z,10.5499
2023-04-17T02:03:22.814Z,10.3300
2023-04-17T02:04:25.329Z,10.3456
2023-04-17T02:05:27.883Z,10.5244
2023-04-17T02:06:30.446Z,9.9514
2023-04-17T02:07:33.058Z,10.3851
2023-04-17T02:08:35.617Z,10.6102
2023-04-17T02:09:38.235Z,10.0927
2023-04-17T02:10:40.793Z,10.3915
2023-04-17T02:11:43.404Z,10.5674
2023-04-17T02:12:45.966Z,9.5785
2023-04-17T02:13:48.576Z,9.6666
2023-04-17T02:14:51.137Z,9.9523
2023-04-17T02:15:53.771Z,9.4721
2023-04-17T02:16:56.321Z,9.4243
2023-04-17T02:17:59.018Z,9.9652
2023-04-17T02:19:01.488Z,10.0012
2023-04-17T02:20:04.102Z,10.3793
2023-04-17T02:21:06.661Z,10.1503
2023-04-17T02:22:09.266Z,9.7870
2023-04-17T02:23:11.843Z,10.0900
2023-04-17T02:24:14.434Z,9.3234
2023-04-17T02:25:17.295Z,9.8238
2023-04-17T02:26:19.613Z,9.7258
2023-04-17T02:27:22.163Z,9.3208
2023-04-17T02:28:24.783Z,9.3504
2023-04-17T02:29:27.355Z,9.7803
2023-04-17T02:30:29.942Z,10.0088
2023-04-17T02:31:32.546Z,9.7776
2023-04-17T02:32:35.139Z,9.9371
2023-04-17T02:33:37.685Z,9.6956
2023-04-17T02:34:40.273Z,9.5894
2023-04-17T02:35:42.829Z,9.5868
2023-04-17T02:36:45.453Z,9.3661
2023-04-17T02:37:48.017Z,9.4653
2023-04-17T02:38:50.612Z,9.5419
2023-04-17T02:39:53.183Z,9.5373
2023-04-17T02:40:55.778Z,10.0844
2023-04-17T02:41:58.332Z,9.4273
2023-04-17T02:43:00.952Z,9.4681
2023-04-17T02:44:03.513Z,9.3329
2023-04-17T02:45:06.121Z,9.7708
2023-04-17T02:46:08.825Z,9.0839
2023-04-17T02:47:11.289Z,9.1198
2023-04-17T02:48:13.855Z,8.7931
2023-04-17T02:49:16.449Z,9.6906
2023-04-17T02:50:19.017Z,10.1535
2023-04-17T02:51:21.623Z,8.9575
2023-04-17T02:52:24.237Z,9.1611
2023-04-17T02:53:26.783Z,9.3244
2023-04-17T02:54:29.340Z,9.0686
2023-04-17T02:55:31.946Z,9.7855
2023-04-17T02:56:34.517Z,9.2946
2023-04-17T02:57:37.113Z,9.5440
2023-04-17T02:58:39.711Z,8.9110
2023-04-17T02:59:42.292Z,9.1235
2023-04-17T03:00:44.853Z,8.9668
2023-04-17T03:01:47.504Z,9.2793
2023-04-17T03:02:50.155Z,9.0409
2023-04-17T03:03:52.911Z,8.9426
2023-04-17T03:04:55.170Z,9.0596
2023-04-17T03:05:57.780Z,8.6973
2023-04-17T03:07:00.337Z,8.6749
2023-04-17T03:08:02.943Z,9.1757
2023-04-17T03:09:05.518Z,9.0011
2023-04-17T03:10:08.118Z,9.0867
2023-04-17T03:11:10.670Z,9.0480
2023-04-17T03:12:13.285Z,8.7936
2023-04-17T03:13:15.840Z,8.9941
2023-04-17T03:14:18.484Z,8.8818
2023-04-17T03:15:21.032Z,8.6069
2023-04-17T03:16:23.910Z,8.1350
2023-04-17T03:17:26.201Z,8.6169
2023-04-17T03:18:28.795Z,8.8004
2023-04-17T03:19:31.338Z,9.2130
2023-04-17T03:20:33.956Z,8.6595
2023-04-17T03:21:36.505Z,8.3119
2023-04-17T03:22:39.109Z,8.1362
2023-04-17T03:23:41.673Z,8.2665
2023-04-17T03:24:44.525Z,8.4000
2023-04-17T03:25:46.849Z,8.2851
2023-04-17T03:26:49.480Z,8.8247
2023-04-17T03:27:52.014Z,8.7825
2023-04-17T03:28:54.618Z,8.3623
2023-04-17T03:29:57.199Z,8.0994
2023-04-17T03:30:59.788Z,8.3264
2023-04-17T03:32:02.455Z,8.1834
2023-04-17T03:33:05.009Z,8.0670
2023-04-17T03:34:07.514Z,8.3267
2023-04-17T03:35:10.120Z,8.1811
2023-04-17T03:36:12.685Z,8.3591
2023-04-17T03:37:15.296Z,8.2488
2023-04-17T03:38:17.861Z,8.3911
2023-04-17T03:39:20.854Z,7.9949
2023-04-17T03:40:23.030Z,8.4790
2023-04-17T03:41:25.637Z,8.6225
2023-04-17T03:42:28.203Z,8.6700
2023-04-17T03:43:30.804Z,8.2734
2023-04-17T03:44:33.358Z,8.6164
2023-04-17T03:45:36.233Z,7.8401
2023-04-17T03:46:38.527Z,8.3547
2023-04-17T03:47:41.167Z,8.0501
2023-04-17T03:48:43.703Z,8.4130
2023-04-17T03:49:46.310Z,8.1690
2023-04-17T03:50:48.898Z,8.2278
2023-04-17T03:51:51.477Z,8.4407
2023-04-17T03:52:54.035Z,8.2740
2023-04-17T03:53:56.642Z,7.9327
2023-04-17T03:54:59.201Z,7.8898
2023-04-17T03:56:01.814Z,7.8458
2023-04-17T03:57:04.382Z,7.7047
2023-04-17T03:58:06.992Z,7.7733
2023-04-17T03:59:09.785Z,7.3629
2023-04-17T04:00:12.161Z,8.0852
2023-04-17T04:01:14.793Z,7.8907
2023-04-17T04:02:17.435Z,7.6273
2023-04-17T04:03:20.042Z,7.3784
2023-04-17T04:04:22.827Z,7.1075
2023-04-17T04:05:25.402Z,7.5984
2023-04-17T04:06:27.664Z,7.8580
2023-04-17T04:07:30.269Z,7.9361
2023-04-17T04:08:32.835Z,7.7878
2023-04-17T04:09:35.396Z,7.8081
2023-04-17T04:10:37.999Z,7.7879
2023-04-17T04:11:40.554Z,7.9207
2023-04-17T04:12:43.165Z,7.8830
2023-04-17T04:13:45.722Z,7.4802
2023-04-17T04:14:48.326Z,7.5238
2023-04-17T04:15:50.900Z,7.9394
2023-04-17T04:16:53.496Z,7.9201
2023-04-17T04:17:56.109Z,7.6318
2023-04-17T04:18:58.676Z,7.1393
2023-04-17T04:20:01.269Z,7.8027
2023-04-17T04:21:03.838Z,6.9549
2023-04-17T04:22:06.959Z,6.8976
2023-04-17T04:23:08.989Z,7.6430
2023-04-17T04:24:11.552Z,7.2974
2023-04-17T04:25:14.169Z,7.0730
2023-04-17T04:26:16.713Z,6.9759
2023-04-17T04:27:19.322Z,7.3354
2023-04-17T04:28:21.883Z,7.1200
2023-04-17T04:29:24.493Z,7.6310
2023-04-17T04:30:27.060Z,6.9050
2023-04-17T04:31:29.843Z,6.9154
2023-04-17T04:32:32.298Z,7.0345
2023-04-17T04:33:35.898Z,6.9176
2023-04-17T04:34:37.380Z,7.3260
2023-04-17T04:35:40.007Z,6.8579
2023-04-17T04:36:42.553Z,7.8564
2023-04-17T04:37:45.164Z,7.9172
2023-04-17T04:38:47.726Z,6.8805
2023-04-17T04:39:50.325Z,6.8833
2023-04-17T04:40:52.944Z,7.0073
2023-04-17T04:41:55.502Z,7.0315
2023-04-17T04:42:58.073Z,7.3596
2023-04-17T04:44:00.669Z,6.7744
2023-04-17T04:45:03.239Z,7.3760
2023-04-17T04:46:05.831Z,7.2629
2023-04-17T04:47:08.546Z,6.9360
2023-04-17T04:48:10.995Z,6.6534
2023-04-17T04:49:13.621Z,7.2283
2023-04-17T04:50:17.388Z,7.0466
2023-04-17T04:51:18.755Z,6.6194
2023-04-17T04:52:21.340Z,6.6545
2023-04-17T04:53:24.123Z,6.4755
2023-04-17T04:54:26.514Z,6.8847
2023-04-17T04:55:29.062Z,6.4694
2023-04-17T04:56:33.040Z,6.6725
2023-04-17T04:57:34.229Z,6.6576
2023-04-17T04:58:36.841Z,6.8691
2023-04-17T04:59:39.402Z,6.6258
2023-04-17T05:00:42.052Z,6.6638
2023-04-17T05:01:44.866Z,6.4423
2023-04-17T05:02:47.278Z,6.7843
2023-04-17T05:03:49.874Z,6.6510
2023-04-17T05:04:52.367Z,6.6884
2023-04-17T05:05:54.903Z,6.7960
2023-04-17T05:06:57.612Z,6.9267
2023-04-17T05:08:00.070Z,7.0477
2023-04-17T05:09:02.650Z,7.1510
2023-04-17T05:10:05.285Z,7.0467
2023-04-17T05:11:07.819Z,6.9971
2023-04-17T05:12:10.508Z,6.7321
2023-04-17T05:13:13.084Z,6.6588
2023-04-17T05:14:15.731Z,7.0685
2023-04-17T05:15:18.247Z,6.7326
2023-04-17T05:16:20.882Z,6.5872
2023-04-17T05:17:23.432Z,6.8946
2023-04-17T05:18:26.015Z,6.6137
2023-04-17T05:19:28.564Z,6.6092
2023-04-17T05:20:31.184Z,6.5111
2023-04-17T05:21:33.735Z,6.2534
2023-04-17T05:22:36.339Z,6.2796
2023-04-17T05:23:38.891Z,6.3781
2023-04-17T05:24:41.507Z,6.6431
2023-04-17T05:25:44.064Z,6.0306
2023-04-17T05:26:46.668Z,6.2168
2023-04-17T05:27:49.281Z,6.5167
2023-04-17T05:28:51.828Z,6.2085
2023-04-17T05:29:54.385Z,6.3040
2023-04-17T05:30:56.989Z,6.4159
2023-04-17T05:31:59.604Z,5.9264
2023-04-17T05:33:02.222Z,6.1917
2023-04-17T05:34:04.868Z,6.7615
2023-04-17T05:35:07.344Z,6.3644
2023-04-17T05:36:09.893Z,5.9045
2023-04-17T05:37:12.484Z,5.9151
2023-04-17T05:38:15.045Z,6.2218
2023-04-17T05:39:17.665Z,6.3654
2023-04-17T05:40:20.210Z,6.3066
2023-04-17T05:41:22.822Z,6.4680
2023-04-17T05:42:25.379Z,5.9765
2023-04-17T05:43:28.005Z,5.9414
2023-04-17T05:44:30.548Z,5.8154
2023-04-17T05:45:33.329Z,6.0315
2023-04-17T05:46:35.717Z,5.7891
2023-04-17T05:47:38.515Z,6.0486
2023-04-17T05:48:40.876Z,6.2797
2023-04-17T05:49:43.496Z,6.0674
2023-04-17T05:50:46.058Z,5.6760
2023-04-17T05:51:48.672Z,5.9366
2023-04-17T05:52:51.236Z,5.5465
2023-04-17T05:53:53.851Z,5.4909
2023-04-17T05:54:56.389Z,5.5509
2023-04-17T05:55:58.995Z,5.5146
2023-04-17T05:57:01.555Z,5.7665
2023-04-17T05:58:16.862Z,5.8524
2023-04-17T05:59:07.753Z,5.6095
2023-04-17T06:00:09.336Z,6.2022
2023-04-17T06:01:11.914Z,5.5350
2023-04-17T06:02:14.587Z,5.7103
2023-04-17T06:03:18.162Z,5.8666
2023-04-17T06:04:19.987Z,6.1750
2023-04-17T06:05:22.327Z,5.3470
2023-04-17T06:06:24.846Z,6.2723
2023-04-17T06:07:27.401Z,5.6152
2023-04-17T06:08:30.016Z,5.5292
2023-04-17T06:09:32.581Z,5.3696
2023-04-17T06:10:35.198Z,5.5847
2023-04-17T06:11:37.748Z,5.3432
2023-04-17T06:12:40.361Z,6.1449
2023-04-17T06:13:42.966Z,5.9525
2023-04-17T06:14:45.525Z,5.8615
2023-04-17T06:15:48.077Z,5.8319
2023-04-17T06:16:50.850Z,5.5154
2023-04-17T06:17:53.319Z,6.1003
2023-04-17T06:18:55.860Z,5.9078
2023-04-17T06:19:58.414Z,6.0957
2023-04-17T06:21:01.051Z,5.4164
2023-04-17T06:22:03.584Z,5.4730
2023-04-17T06:23:06.196Z,5.6574
2023-04-17T06:24:08.764Z,5.6122
2023-04-17T06:25:11.915Z,5.6844
2023-04-17T06:26:13.929Z,5.9081
2023-04-17T06:27:16.533Z,5.9134
2023-04-17T06:28:19.099Z,5.8524
2023-04-17T06:29:21.734Z,5.5484
2023-04-17T06:30:24.256Z,5.3110
2023-04-17T06:31:26.888Z,5.5907
2023-04-17T06:32:29.484Z,5.6696
2023-04-17T06:33:32.062Z,5.6234
2023-04-17T06:34:34.604Z,5.8427
2023-04-17T06:35:37.206Z,5.4702
2023-04-17T06:36:39.792Z,5.2520
2023-04-17T06:37:42.576Z,5.5045
2023-04-17T06:38:44.933Z,5.6767
2023-04-17T06:39:47.535Z,5.3938
2023-04-17T06:40:52.131Z,5.1978
2023-04-17T06:41:52.703Z,4.9673
2023-04-17T06:42:55.308Z,5.5255
2023-04-17T06:43:57.865Z,5.4741
2023-04-17T06:45:00.434Z,5.8442
2023-04-17T06:46:03.054Z,5.7524
2023-04-17T06:47:05.593Z,5.4877
2023-04-17T06:48:08.201Z,5.8862
2023-04-17T06:49:11.038Z,6.0138
2023-04-17T06:50:13.387Z,5.4172
2023-04-17T06:51:15.917Z,5.6612
2023-04-17T06:52:18.525Z,5.4005
2023-04-17T06:53:21.086Z,5.5896
2023-04-17T06:54:23.700Z,6.0211
2023-04-17T06:55:26.277Z,6.2023
2023-04-17T06:56:28.893Z,5.7996
2023-04-17T06:57:31.412Z,5.5739
2023-04-17T06:58:34.030Z,5.5648
2023-04-17T06:59:36.575Z,6.1749
2023-04-17T07:00:39.200Z,5.9959
2023-04-17T07:01:41.826Z,5.8477
2023-04-17T07:02:44.433Z,5.7588
2023-04-17T07:03:47.082Z,5.9268
2023-04-17T07:04:49.784Z,5.4499
2023-04-17T07:05:52.084Z,5.6106
2023-04-17T07:06:54.684Z,5.5407
2023-04-17T07:07:57.237Z,5.5589
2023-04-17T07:09:00.120Z,5.4667
2023-04-17T07:10:02.413Z,5.7737
2023-04-17T07:11:05.048Z,5.7574
2023-04-17T07:12:07.589Z,5.1907
2023-04-17T07:13:10.192Z,5.6230
2023-04-17T07:14:12.973Z,5.5824
2023-04-17T07:15:15.523Z,5.3809
2023-04-17T07:16:17.981Z,5.3706
2023-04-17T07:17:20.613Z,5.5149
2023-04-17T07:18:23.095Z,5.5500
2023-04-17T07:19:25.703Z,5.5954
2023-04-17T07:20:28.283Z,5.3736
2023-04-17T07:21:30.872Z,5.2643
2023-04-17T07:22:33.434Z,5.0038
2023-04-17T07:23:36.035Z,5.5560
2023-04-17T07:24:38.603Z,5.5521
2023-04-17T07:25:41.235Z,5.5588
2023-04-17T07:26:44.040Z,5.3816
2023-04-17T07:27:46.382Z,5.2503
2023-04-17T07:28:48.942Z,5.6099
2023-04-17T07:29:51.564Z,5.6637
2023-04-17T07:30:54.107Z,5.9246
2023-04-17T07:31:56.928Z,5.4449
2023-04-17T07:32:59.534Z,5.5017
2023-04-17T07:34:01.925Z,5.6794
2023-04-17T07:35:04.494Z,5.6372
2023-04-17T07:36:07.072Z,5.3697
2023-04-17T07:37:09.632Z,5.5938
2023-04-17T07:38:12.254Z,6.3362
2023-04-17T07:39:14.855Z,6.2084
2023-04-17T07:40:17.410Z,5.5128
2023-04-17T07:41:19.971Z,5.3623
2023-04-17T07:42:22.661Z,5.4130
2023-04-17T07:43:25.206Z,5.3884
2023-04-17T07:44:27.766Z,5.6774
2023-04-17T07:45:30.334Z,5.6906
2023-04-17T07:46:33.005Z,5.4853
2023-04-17T07:47:35.557Z,5.6109
2023-04-17T07:48:38.117Z,5.1931
2023-04-17T07:49:40.675Z,5.1950
2023-04-17T07:50:43.276Z,5.4466
2023-04-17T07:51:45.830Z,5.6303
2023-04-17T07:52:48.453Z,5.6728
2023-04-17T07:53:51.031Z,5.5118
2023-04-17T07:54:53.628Z,5.6523
2023-04-17T07:55:56.228Z,5.6035
2023-04-17T07:56:58.856Z,5.5448
2023-04-17T07:58:01.345Z,5.3292
2023-04-17T07:59:03.958Z,5.8083
2023-04-17T08:00:06.511Z,5.6011
2023-04-17T08:01:09.126Z,5.3237
2023-04-17T08:02:11.800Z,5.2874
2023-04-17T08:03:14.504Z,5.1642
2023-04-17T08:04:17.338Z,5.3410
2023-04-17T08:05:19.531Z,5.5005
2023-04-17T08:06:22.023Z,5.2979
2023-04-17T08:07:24.668Z,5.1738
2023-04-17T08:08:27.202Z,5.3188
2023-04-17T08:09:29.815Z,5.1823
2023-04-17T08:10:32.372Z,5.1978
2023-04-17T08:11:40.095Z,5.1941
2023-04-17T08:12:38.823Z,5.1740
2023-04-17T08:13:40.150Z,5.6111
2023-04-17T08:14:42.709Z,5.6377
2023-04-17T08:15:45.329Z,4.6323
2023-04-17T08:16:47.952Z,4.8316
2023-04-17T08:17:50.526Z,5.6836
2023-04-17T08:18:53.055Z,5.3571
2023-04-17T08:19:55.692Z,5.0917
2023-04-17T08:20:58.217Z,5.3865
2023-04-17T08:22:00.837Z,5.3231
2023-04-17T08:23:03.402Z,4.8811
2023-04-17T08:24:06.003Z,4.7741
2023-04-17T08:25:08.557Z,5.3909
2023-04-17T08:26:11.167Z,5.3539
2023-04-17T08:27:13.730Z,5.1597
2023-04-17T08:28:16.379Z,4.7705
2023-04-17T08:29:18.951Z,5.1439
2023-04-17T08:30:21.496Z,4.9482
2023-04-17T08:31:24.177Z,5.1264
2023-04-17T08:32:26.674Z,5.0459
2023-04-17T08:33:29.224Z,5.1387
2023-04-17T08:34:31.987Z,5.1079
2023-04-17T08:35:34.389Z,5.0874
2023-04-17T08:36:37.001Z,5.1343
2023-04-17T08:37:39.569Z,4.8003
2023-04-17T08:38:42.208Z,4.7484
2023-04-17T08:39:44.730Z,5.2080
2023-04-17T08:40:47.357Z,4.8402
2023-04-17T08:41:49.893Z,4.9723
2023-04-17T08:42:52.505Z,5.2189
2023-04-17T08:43:55.078Z,4.7543
2023-04-17T08:44:57.666Z,5.0214
2023-04-17T08:46:00.604Z,4.7352
2023-04-17T08:47:02.840Z,4.9685
2023-04-17T08:48:05.424Z,4.7843
2023-04-17T08:49:08.015Z,5.1390
2023-04-17T08:50:10.595Z,5.1005
2023-04-17T08:51:13.178Z,4.5266
2023-04-17T08:52:15.746Z,4.9594
2023-04-17T08:53:18.341Z,4.7303
2023-04-17T08:54:20.897Z,4.6089
2023-04-17T08:55:23.522Z,4.2361
2023-04-17T08:56:26.076Z,4.6613
2023-04-17T08:57:28.675Z,5.2088
2023-04-17T08:58:31.236Z,4.4561
2023-04-17T08:59:33.867Z,4.3511
2023-04-17T09:00:36.435Z,4.7997
2023-04-17T09:01:39.089Z,4.5821
2023-04-17T09:02:41.716Z,4.7422
2023-04-17T09:03:44.338Z,4.8035
2023-04-17T09:04:46.859Z,4.4705
2023-04-17T09:05:49.359Z,4.1017
2023-04-17T09:06:52.025Z,4.1995
2023-04-17T09:07:54.528Z,4.4518
2023-04-17T09:08:57.086Z,4.6301
2023-04-17T09:09:59.708Z,4.8330
2023-04-17T09:11:02.276Z,4.8164
2023-04-17T09:12:04.890Z,4.7735
2023-04-17T09:13:07.474Z,4.6938
2023-04-17T09:14:10.037Z,4.3111
2023-04-17T09:15:12.603Z,4.3623
2023-04-17T09:16:15.281Z,4.5521
2023-04-17T09:17:17.770Z,4.2850
2023-04-17T09:18:20.451Z,4.7392
2023-04-17T09:19:23.133Z,4.3336
2023-04-17T09:20:25.772Z,3.9729
2023-04-17T09:21:28.174Z,4.6001
2023-04-17T09:22:30.792Z,4.5124
2023-04-17T09:23:33.352Z,3.8054
2023-04-17T09:24:36.316Z,4.0098
2023-04-17T09:25:38.514Z,4.0791
2023-04-17T09:26:41.135Z,4.2359
2023-04-17T09:27:43.682Z,4.2560
2023-04-17T09:28:46.303Z,4.0655
2023-04-17T09:29:48.854Z,4.2432
2023-04-17T09:30:51.466Z,4.1562
2023-04-17T09:31:54.095Z,4.5207
2023-04-17T09:32:56.785Z,4.3238
2023-04-17T09:33:59.216Z,4.1588
2023-04-17T09:35:01.825Z,4.0696
2023-04-17T09:36:04.401Z,4.1213
2023-04-17T09:37:07.969Z,4.3118
2023-04-17T09:38:09.559Z,4.3589
2023-04-17T09:39:12.242Z,4.2050
2023-04-17T09:40:14.723Z,4.3269
2023-04-17T09:41:17.407Z,4.0266
2023-04-17T09:42:19.914Z,3.9416
2023-04-17T09:43:22.442Z,4.3898
2023-04-17T09:44:25.057Z,4.3580
2023-04-17T09:45:48.604Z,4.1390
2023-04-17T09:46:30.250Z,4.4485
2023-04-17T09:47:32.838Z,4.2801
2023-04-17T09:48:35.368Z,4.4123
2023-04-17T09:49:38.198Z,4.0009
2023-04-17T09:50:40.527Z,3.8596
2023-04-17T09:51:43.155Z,4.1445
2023-04-17T09:52:45.713Z,4.4151
2023-04-17T09:53:48.363Z,4.4446
2023-04-17T09:54:50.849Z,4.3572
2023-04-17T09:55:53.467Z,4.0695
2023-04-17T09:56:56.213Z,3.7900
2023-04-17T09:57:58.625Z,3.9742
2023-04-17T09:59:01.193Z,4.4756
2023-04-17T10:00:03.786Z,4.0242
2023-04-17T10:01:06.401Z,3.7569
2023-04-17T10:02:09.092Z,4.1008
2023-04-17T10:03:11.760Z,3.8363
2023-04-17T10:04:14.440Z,3.9731
2023-04-17T10:05:16.672Z,4.3839
2023-04-17T10:06:19.306Z,4.2571
2023-04-17T10:07:21.842Z,3.9321
2023-04-17T10:08:24.451Z,4.1532
2023-04-17T10:09:27.043Z,3.7308
2023-04-17T10:10:29.670Z,3.7882
2023-04-17T10:11:32.196Z,3.9420
2023-04-17T10:12:35.113Z,4.1264
2023-04-17T10:13:37.337Z,3.8528
2023-04-17T10:14:39.953Z,3.8150
2023-04-17T10:15:42.500Z,4.6654
2023-04-17T10:16:45.327Z,42.8345
2023-04-17T10:17:47.677Z,32.6519
2023-04-17T10:18:50.293Z,26.5249
2023-04-17T10:19:52.852Z,25.9921
2023-04-17T10:20:55.534Z,14.3453
2023-04-17T10:21:58.006Z,13.4321
2023-04-17T10:23:00.617Z,13.8045
2023-04-17T10:24:03.174Z,13.6722
2023-04-17T10:25:05.768Z,13.1566
2023-04-17T10:26:08.335Z,12.5168
2023-04-17T10:27:10.958Z,13.5398
2023-04-17T10:28:13.507Z,13.3734
2023-04-17T10:29:16.109Z,12.4439
2023-04-17T10:31:21.311Z,11.0749
2023-04-17T10:32:23.818Z,11.4232
2023-04-17T10:33:26.470Z,11.4335
2023-04-17T10:34:29.045Z,11.2188
2023-04-17T10:35:31.603Z,11.2420
2023-04-17T10:36:34.156Z,11.5483
2023-04-17T10:37:36.764Z,11.2875
2023-04-17T10:38:39.319Z,11.3496
2023-04-17T10:39:41.928Z,11.4259
2023-04-17T10:40:44.548Z,11.6418
2023-04-17T10:41:47.106Z,11.8535
2023-04-17T10:42:49.661Z,11.7136
2023-04-17T10:43:52.290Z,11.1085
2023-04-17T10:44:54.845Z,11.3028
2023-04-17T10:45:57.531Z,10.9413
2023-04-17T10:46:59.993Z,10.8974
2023-04-17T10:48:02.697Z,11.3122
2023-04-17T10:49:05.185Z,10.5755
2023-04-17T10:50:07.790Z,11.0622
2023-04-17T10:51:10.355Z,9.8126
2023-04-17T10:52:12.944Z,10.4466
2023-04-17T10:53:15.504Z,10.1022
2023-04-17T10:54:18.114Z,10.6851
2023-04-17T10:55:20.686Z,9.9719
2023-04-17T10:56:23.285Z,10.6679
2023-04-17T10:57:26.176Z,10.3678
2023-04-17T10:58:31.616Z,10.2164
2023-04-17T10:59:31.010Z,10.9164
2023-04-17T11:00:33.628Z,10.3020
2023-04-17T11:01:36.197Z,10.4357
2023-04-17T11:02:38.841Z,17.2317
2023-04-17T11:03:41.375Z,28.1562
2023-04-17T11:04:43.979Z,21.9158
2023-04-17T11:05:46.524Z,15.6392
2023-04-17T11:06:49.136Z,11.6529
2023-04-17T11:07:51.676Z,11.3222
2023-04-17T11:08:55.615Z,11.2305
2023-04-17T11:09:56.824Z,11.7984
2023-04-17T11:10:59.461Z,12.4859
2023-04-17T11:12:02.383Z,12.9611
2023-04-17T11:13:04.606Z,12.9189
2023-04-17T11:14:07.152Z,12.5517
2023-04-17T11:15:09.818Z,12.3175
2023-04-17T11:16:12.318Z,12.2057
2023-04-17T11:17:14.954Z,13.0004
